Time;durP1;ratioP1;P1;durP2;ratioP2;P2;SDS_P1;SDS_P2;PMS_P1;PMS_P2;Temp;Humidity;BMP_temperature;BMP_pressure;BME280_temperature;BME280_humidity;BME280_pressure;Samples;Min_cycle;Max_cycle;Signal;HPM_P1;HPM_P2
2022/09/07 00:00:46;;;;;;;13.45;7.53;;;512.80;2380.80;;;;;;5080306;28;20020;-79
2022/09/07 00:03:12;;;;;;;11.52;7.13;;;512.80;2380.80;;;;;;5080512;28;20115;-79
2022/09/07 00:05:46;;;;;;;13.75;8.50;;;512.90;2380.80;;;;;;5083233;28;20108;-79
2022/09/07 00:08:12;;;;;;;10.05;7.30;;;512.80;2380.80;;;;;;5085965;28;20016;-79
2022/09/07 00:10:38;;;;;;;10.75;8.05;;;512.80;2380.80;;;;;;5080399;28;20021;-79
2022/09/07 00:13:05;;;;;;;10.82;8.35;;;512.80;2380.80;;;;;;5087286;28;20034;-79
2022/09/07 00:15:31;;;;;;;12.82;7.47;;;512.80;2380.80;;;;;;5091048;28;20533;-80
2022/09/07 00:17:57;;;;;;;9.48;7.35;;;512.80;2380.80;;;;;;5086151;28;20048;-79
2022/09/07 00:20:23;;;;;;;12.15;7.53;;;512.80;2380.80;;;;;;5086346;28;20020;-80
2022/09/07 00:22:49;;;;;;;10.88;8.38;;;512.70;2380.80;;;;;;5079781;28;20032;-79
2022/09/07 00:25:15;;;;;;;12.20;8.13;;;512.80;2380.80;;;;;;5085815;28;20039;-79
2022/09/07 00:27:40;;;;;;;10.13;7.38;;;512.70;2380.80;;;;;;5082162;28;20024;-79
2022/09/07 00:30:07;;;;;;;17.08;8.35;;;512.60;2380.80;;;;;;5081757;28;20020;-79
2022/09/07 00:32:33;;;;;;;12.02;8.73;;;512.70;2380.80;;;;;;5082401;28;20036;-79
2022/09/07 00:34:58;;;;;;;11.07;7.75;;;512.60;2380.80;;;;;;5085797;28;20047;-79
2022/09/07 00:37:24;;;;;;;11.70;8.68;;;512.60;2380.80;;;;;;5080834;28;20111;-79
2022/09/07 00:39:51;;;;;;;13.18;8.20;;;512.60;2380.80;;;;;;5084751;28;20146;-80
2022/09/07 00:42:21;;;;;;;13.80;8.98;;;512.60;2380.80;;;;;;5081834;28;20070;-79
2022/09/07 00:45:08;;;;;;;12.57;8.48;;;512.60;2380.80;;;;;;5078332;28;20028;-79
2022/09/07 00:48:03;;;;;;;14.75;7.75;;;512.50;2380.80;;;;;;5087322;28;20033;-79
2022/09/07 00:50:43;;;;;;;11.52;8.70;;;512.50;2380.80;;;;;;5026237;28;20029;-79
2022/09/07 00:53:11;;;;;;;14.40;7.70;;;512.50;2380.80;;;;;;5023661;28;20064;-79
2022/09/07 00:55:41;;;;;;;13.13;8.18;;;512.50;2380.80;;;;;;5049320;28;20041;-79
2022/09/07 00:58:08;;;;;;;11.85;8.65;;;512.50;2380.80;;;;;;5028570;28;20052;-79
2022/09/07 01:00:34;;;;;;;10.75;8.30;;;512.50;2380.80;;;;;;5027195;28;20057;-79
2022/09/07 01:03:00;;;;;;;10.70;7.90;;;512.50;2380.80;;;;;;5024902;28;20021;-79
2022/09/07 01:05:59;;;;;;;13.52;8.93;;;512.50;2380.80;;;;;;5032662;28;20100;-79
2022/09/07 01:08:25;;;;;;;10.80;7.82;;;512.50;2380.80;;;;;;5028585;28;20037;-79
2022/09/07 01:10:51;;;;;;;10.90;8.68;;;512.50;2380.80;;;;;;5025462;28;20522;-79
2022/09/07 01:13:17;;;;;;;11.73;8.02;;;512.50;2380.80;;;;;;5026349;28;20044;-79
2022/09/07 01:16:03;;;;;;;9.80;7.85;;;512.50;2380.80;;;;;;5021201;28;20041;-79
2022/09/07 01:18:50;;;;;;;9.97;7.57;;;512.50;2380.80;;;;;;5034965;28;20112;-79
2022/09/07 01:21:35;;;;;;;12.40;8.50;;;512.50;2380.80;;;;;;5040919;28;20041;-79
2022/09/07 01:24:25;;;;;;;13.18;8.07;;;512.40;2380.80;;;;;;5026242;28;20045;-79
2022/09/07 01:27:24;;;;;;;11.00;7.95;;;512.50;2380.80;;;;;;5046809;28;20028;-79
2022/09/07 01:29:59;;;;;;;11.00;8.07;;;512.40;2380.80;;;;;;5083230;28;20497;-79
2022/09/07 01:33:01;;;;;;;12.43;7.95;;;512.40;2380.80;;;;;;5059472;28;20516;-79
2022/09/07 01:36:04;;;;;;;12.43;8.10;;;512.50;2380.80;;;;;;5080679;28;20024;-79
2022/09/07 01:38:41;;;;;;;10.52;8.07;;;512.50;2380.80;;;;;;5088575;28;20024;-79
2022/09/07 01:41:22;;;;;;;11.45;8.45;;;512.30;2380.80;;;;;;5086092;28;20063;-79
2022/09/07 01:44:28;;;;;;;12.15;7.88;;;512.40;2380.80;;;;;;5095552;28;20021;-79
2022/09/07 01:47:16;;;;;;;12.82;8.50;;;512.40;2380.80;;;;;;5075699;28;20385;-79
2022/09/07 01:50:14;;;;;;;9.75;7.65;;;512.40;2380.80;;;;;;5082529;28;20031;-79
2022/09/07 01:52:47;;;;;;;15.02;8.23;;;512.50;2380.80;;;;;;5087334;28;20123;-79
2022/09/07 01:55:30;;;;;;;12.45;9.65;;;512.40;2380.80;;;;;;5085149;28;20020;-80
2022/09/07 01:58:27;;;;;;;10.75;7.95;;;512.30;2380.80;;;;;;5077740;28;20029;-79
2022/09/07 02:01:00;;;;;;;11.85;9.35;;;512.30;2380.80;;;;;;5098502;28;20032;-78
2022/09/07 02:04:06;;;;;;;16.27;9.27;;;512.30;2380.80;;;;;;5080508;28;20028;-79
2022/09/07 02:06:43;;;;;;;12.80;8.68;;;512.30;2380.80;;;;;;5077732;28;20033;-79
2022/09/07 02:09:32;;;;;;;13.05;8.15;;;512.20;2380.80;;;;;;5093984;28;20027;-79
2022/09/07 02:12:02;;;;;;;17.02;9.13;;;512.20;2380.80;;;;;;5076056;28;20046;-79
2022/09/07 02:14:35;;;;;;;13.68;9.02;;;512.20;2380.80;;;;;;5081764;28;20157;-79
2022/09/07 02:17:12;;;;;;;14.25;9.30;;;512.20;2380.80;;;;;;5084322;28;20059;-79
2022/09/07 02:19:46;;;;;;;11.55;8.65;;;512.20;2380.80;;;;;;5086856;28;20484;-79
2022/09/07 02:22:17;;;;;;;12.27;9.15;;;512.10;2380.80;;;;;;5081704;28;20032;-79
2022/09/07 02:24:48;;;;;;;13.55;8.88;;;512.10;2380.80;;;;;;5090927;28;20024;-79
2022/09/07 02:27:20;;;;;;;14.23;8.25;;;512.10;2380.80;;;;;;5087590;28;20126;-79
2022/09/07 02:29:45;;;;;;;14.88;9.23;;;512.10;2380.80;;;;;;5084625;28;20024;-79
2022/09/07 02:32:11;;;;;;;15.95;9.43;;;512.00;2380.80;;;;;;5080033;28;20040;-79
2022/09/07 02:34:37;;;;;;;11.55;8.73;;;512.10;2380.80;;;;;;5090670;28;20020;-79
2022/09/07 02:37:07;;;;;;;12.70;9.52;;;512.00;2380.80;;;;;;5084508;28;20035;-79
2022/09/07 02:39:33;;;;;;;13.02;9.27;;;512.00;2380.80;;;;;;5080273;28;20103;-79
2022/09/07 02:41:59;;;;;;;16.98;9.10;;;487.30;2380.80;;;;;;5093817;28;20542;-80
2022/09/07 02:44:31;;;;;;;11.07;8.70;;;487.30;2380.80;;;;;;5081528;28;20397;-79
2022/09/07 02:47:21;;;;;;;12.95;9.00;;;487.30;2380.80;;;;;;5087261;28;20511;-79
2022/09/07 02:50:24;;;;;;;17.58;9.23;;;487.30;2380.80;;;;;;5087799;28;20027;-79
2022/09/07 02:52:59;;;;;;;14.60;8.30;;;487.30;2380.80;;;;;;5067616;28;20482;-78
2022/09/07 02:55:54;;;;;;;15.65;9.82;;;487.20;2380.80;;;;;;5086537;28;20066;-79
2022/09/07 02:58:23;;;;;;;13.60;9.05;;;487.10;2380.80;;;;;;5105054;28;20501;-79
2022/09/07 03:01:04;;;;;;;13.63;9.57;;;487.10;2380.80;;;;;;5081280;28;20020;-79
2022/09/07 03:03:51;;;;;;;17.80;9.48;;;487.20;2380.80;;;;;;5092946;28;20027;-80
2022/09/07 03:06:40;;;;;;;12.88;9.55;;;487.10;2380.80;;;;;;5083586;28;20025;-80
2022/09/07 03:09:11;;;;;;;15.25;9.75;;;487.10;2380.80;;;;;;5080761;28;20534;-79
2022/09/07 03:11:37;;;;;;;17.15;10.07;;;487.20;2380.80;;;;;;5075146;28;20028;-80
2022/09/07 03:14:23;;;;;;;17.58;10.35;;;487.20;2380.80;;;;;;5075343;28;20031;-79
2022/09/07 03:16:55;;;;;;;12.90;9.98;;;487.20;2380.80;;;;;;5089643;28;20043;-79
2022/09/07 03:19:21;;;;;;;14.40;9.20;;;487.30;2380.80;;;;;;5078869;28;20078;-78
2022/09/07 03:21:47;;;;;;;14.18;8.20;;;487.30;2380.80;;;;;;5093203;28;20020;-79
2022/09/07 03:24:13;;;;;;;11.88;9.60;;;512.00;2380.80;;;;;;5092977;28;20028;-79
2022/09/07 03:26:42;;;;;;;13.63;9.48;;;512.10;2380.80;;;;;;5093187;28;20020;-79
2022/09/07 03:29:08;;;;;;;12.93;9.48;;;512.10;2380.80;;;;;;5093040;28;20436;-79
2022/09/07 03:31:35;;;;;;;10.95;8.50;;;512.10;2380.80;;;;;;5092711;28;20051;-80
2022/09/07 03:34:01;;;;;;;10.82;8.27;;;512.10;2380.80;;;;;;5093024;28;20080;-79
2022/09/07 03:36:28;;;;;;;13.52;9.10;;;512.10;2380.80;;;;;;5092726;28;20024;-79
2022/09/07 03:38:54;;;;;;;14.45;8.90;;;512.10;2380.80;;;;;;5092837;28;20158;-79
2022/09/07 03:41:20;;;;;;;13.18;10.30;;;512.00;2380.80;;;;;;5092620;28;20051;-79
2022/09/07 03:43:47;;;;;;;13.35;9.25;;;487.30;2380.80;;;;;;5092904;28;20470;-79
2022/09/07 03:46:16;;;;;;;17.27;10.25;;;487.30;2380.80;;;;;;5091519;28;20062;-79
2022/09/07 03:48:42;;;;;;;15.70;10.63;;;487.30;2380.80;;;;;;5075524;28;20056;-79
2022/09/07 03:51:10;;;;;;;17.65;12.40;;;487.20;2380.80;;;;;;5091562;28;20059;-79
2022/09/07 03:53:39;;;;;;;22.25;14.68;;;487.10;2380.80;;;;;;5091427;28;20040;-79
2022/09/07 03:56:20;;;;;;;26.67;16.83;;;487.10;2380.80;;;;;;5092827;28;20016;-79
2022/09/07 03:58:47;;;;;;;32.28;21.08;;;487.00;2380.80;;;;;;5076557;28;20468;-79
2022/09/07 04:01:19;;;;;;;31.25;21.05;;;487.00;2380.80;;;;;;5080875;28;20087;-79
2022/09/07 04:03:45;;;;;;;25.95;16.73;;;486.90;2380.80;;;;;;5065179;28;20028;-79
2022/09/07 04:06:11;;;;;;;24.15;13.95;;;486.80;2380.80;;;;;;5092131;28;20027;-79
2022/09/07 04:08:39;;;;;;;19.20;11.40;;;486.70;2380.80;;;;;;5091969;28;20095;-80
2022/09/07 04:11:06;;;;;;;15.20;10.48;;;486.60;2380.80;;;;;;5093552;28;20077;-79
2022/09/07 04:13:34;;;;;;;17.23;10.73;;;486.50;2380.80;;;;;;5092053;28;20024;-79
2022/09/07 04:16:18;;;;;;;13.98;10.38;;;461.70;2380.80;;;;;;5079863;28;20062;-79
2022/09/07 04:18:45;;;;;;;13.98;9.57;;;461.60;2380.80;;;;;;5086650;28;20024;-79
2022/09/07 04:21:11;;;;;;;16.20;10.48;;;461.60;2380.80;;;;;;5089366;28;20097;-79
2022/09/07 04:23:41;;;;;;;13.82;10.23;;;461.70;2380.80;;;;;;5078972;28;20107;-79
2022/09/07 04:26:13;;;;;;;14.35;10.65;;;461.70;2380.80;;;;;;5085523;28;20028;-79
2022/09/07 04:28:39;;;;;;;15.25;10.15;;;486.40;2380.80;;;;;;5085177;28;20063;-79
2022/09/07 04:31:05;;;;;;;16.70;9.63;;;486.50;2380.80;;;;;;5083925;28;20056;-79
2022/09/07 04:33:31;;;;;;;16.95;10.48;;;486.50;2380.80;;;;;;5091777;28;20557;-79
2022/09/07 04:35:59;;;;;;;18.85;10.18;;;486.50;2380.80;;;;;;5091786;28;20059;-79
2022/09/07 04:38:26;;;;;;;13.30;9.73;;;486.50;2380.80;;;;;;5088432;28;20024;-79
2022/09/07 04:41:05;;;;;;;19.23;10.73;;;486.50;2380.80;;;;;;5082578;28;20028;-79
2022/09/07 04:43:31;;;;;;;15.50;10.27;;;486.50;2380.80;;;;;;5076452;28;20036;-79
2022/09/07 04:46:01;;;;;;;12.77;10.15;;;486.50;2380.80;;;;;;5088064;28;20548;-78
2022/09/07 04:48:27;;;;;;;13.18;9.25;;;486.50;2380.80;;;;;;5082826;28;20041;-81
2022/09/07 04:50:52;;;;;;;13.82;10.60;;;486.50;2380.80;;;;;;5082876;28;20027;-81
2022/09/07 04:53:18;;;;;;;14.95;10.38;;;486.60;2380.80;;;;;;5079508;28;20034;-79
2022/09/07 04:55:44;;;;;;;17.17;10.40;;;486.60;2380.80;;;;;;5082226;28;20078;-81
2022/09/07 04:58:10;;;;;;;16.48;10.18;;;486.70;2380.80;;;;;;5078851;28;20023;-79
2022/09/07 05:00:38;;;;;;;13.38;10.32;;;486.80;2380.80;;;;;;5071111;28;20020;-82
2022/09/07 05:03:05;;;;;;;20.33;11.13;;;486.90;2380.80;;;;;;5079307;28;20518;-79
2022/09/07 05:05:30;;;;;;;14.68;10.73;;;487.00;2380.80;;;;;;5083024;28;20032;-80
2022/09/07 05:07:56;;;;;;;14.05;10.82;;;487.00;2380.80;;;;;;5081249;28;20024;-81
2022/09/07 05:10:22;;;;;;;15.75;10.30;;;487.00;2380.80;;;;;;5083631;28;20034;-80
2022/09/07 05:12:48;;;;;;;16.45;11.05;;;487.10;2380.80;;;;;;5078232;28;20046;-82
2022/09/07 05:15:13;;;;;;;14.70;9.82;;;487.10;2380.80;;;;;;5077224;28;20456;-80
2022/09/07 05:17:39;;;;;;;18.30;9.88;;;487.20;2380.80;;;;;;5082443;28;20047;-80
2022/09/07 05:20:06;;;;;;;16.50;11.07;;;487.30;2380.80;;;;;;5076508;28;20108;-81
2022/09/07 05:22:34;;;;;;;13.05;9.00;;;487.30;2380.80;;;;;;5082992;28;20422;-80
2022/09/07 05:25:00;;;;;;;15.90;11.10;;;487.30;2380.80;;;;;;5074715;28;20120;-81
2022/09/07 05:27:25;;;;;;;15.95;10.15;;;512.00;2380.80;;;;;;5085677;28;20523;-80
2022/09/07 05:29:51;;;;;;;15.65;10.70;;;512.10;2380.80;;;;;;5080012;28;20024;-83
2022/09/07 05:32:17;;;;;;;19.75;9.45;;;512.20;2380.80;;;;;;5091760;28;20036;-79
2022/09/07 05:34:42;;;;;;;14.63;9.45;;;512.40;2380.80;;;;;;5087651;28;20025;-82
2022/09/07 05:37:08;;;;;;;16.42;10.40;;;512.50;2380.80;;;;;;5076259;28;20032;-80
2022/09/07 05:39:34;;;;;;;16.45;9.98;;;512.60;2380.80;;;;;;5080598;28;20024;-80
2022/09/07 05:42:00;;;;;;;13.52;9.20;;;512.80;2380.80;;;;;;5080665;28;20536;-79
2022/09/07 05:44:25;;;;;;;14.50;9.10;;;512.90;2380.80;;;;;;5082137;28;20424;-80
2022/09/07 05:46:51;;;;;;;12.73;8.55;;;537.70;2406.40;;;;;;5091139;28;20390;-81
2022/09/07 05:49:17;;;;;;;11.13;8.60;;;537.80;2406.40;;;;;;5090884;28;20090;-81
2022/09/07 05:51:43;;;;;;;12.27;8.35;;;538.00;2406.40;;;;;;5090738;28;20012;-79
2022/09/07 05:54:10;;;;;;;14.00;8.98;;;538.00;2406.40;;;;;;5089615;28;20036;-82
2022/09/07 05:56:35;;;;;;;13.93;8.95;;;538.00;2406.40;;;;;;5086257;28;20042;-80
2022/09/07 05:59:02;;;;;;;11.77;8.02;;;538.00;2406.40;;;;;;5091607;28;20024;-81
2022/09/07 06:01:28;;;;;;;13.43;8.30;;;538.10;2406.40;;;;;;5091136;28;20085;-82
2022/09/07 06:03:53;;;;;;;17.52;9.52;;;538.20;2406.40;;;;;;5090761;28;20486;-84
2022/09/07 06:06:19;;;;;;;12.50;8.23;;;538.20;2406.40;;;;;;5091434;28;20370;-82
2022/09/07 06:08:51;;;;;;;14.30;9.25;;;538.30;2406.40;;;;;;5091600;28;20541;-82
2022/09/07 06:11:19;;;;;;;11.27;8.23;;;538.30;2406.40;;;;;;5091570;28;20013;-83
2022/09/07 06:13:45;;;;;;;14.20;8.85;;;538.40;2406.40;;;;;;5091222;28;20099;-83
2022/09/07 06:16:12;;;;;;;19.80;10.60;;;538.50;2406.40;;;;;;5090754;28;20064;-84
2022/09/07 06:18:40;;;;;;;14.88;8.75;;;538.50;2406.40;;;;;;5077338;28;20044;-84
2022/09/07 06:21:11;;;;;;;14.00;8.05;;;538.50;2406.40;;;;;;5091479;28;20012;-83
2022/09/07 06:23:39;;;;;;;11.50;7.82;;;563.20;2432.00;;;;;;5078344;28;20031;-83
2022/09/07 06:26:05;;;;;;;16.08;9.65;;;563.30;2432.00;;;;;;5085631;28;20027;-83
2022/09/07 06:28:34;;;;;;;13.52;10.88;;;563.90;2432.00;;;;;;5083022;28;20169;-83
2022/09/07 06:31:00;;;;;;;17.55;8.88;;;563.50;2432.00;;;;;;5095398;28;20032;-82
2022/09/07 06:33:26;;;;;;;13.65;8.23;;;563.50;2432.00;;;;;;5097626;28;20066;-84
2022/09/07 06:36:00;;;;;;;14.70;8.60;;;563.50;2432.00;;;;;;5119000;28;20038;-84
2022/09/07 06:38:31;;;;;;;15.07;8.75;;;563.50;2432.00;;;;;;5118207;28;20051;-79
2022/09/07 06:41:04;;;;;;;13.90;7.82;;;563.50;2432.00;;;;;;5095072;28;20442;-83
2022/09/07 06:43:30;;;;;;;13.57;8.20;;;563.60;2432.00;;;;;;5083420;28;20042;-82
2022/09/07 06:45:56;;;;;;;16.58;8.52;;;563.50;2432.00;;;;;;5078462;28;20390;-82
2022/09/07 06:48:23;;;;;;;15.00;7.50;;;563.50;2432.00;;;;;;5085646;28;20024;-85
2022/09/07 06:51:00;;;;;;;12.20;7.95;;;563.50;2432.00;;;;;;5080371;28;20046;-79
2022/09/07 06:53:31;;;;;;;13.63;7.47;;;563.50;2432.00;;;;;;5087425;28;20074;-83
2022/09/07 06:55:57;;;;;;;14.68;8.65;;;563.50;2432.00;;;;;;5079317;28;20032;-82
2022/09/07 06:58:25;;;;;;;13.68;7.35;;;563.50;2432.00;;;;;;5084801;28;20032;-84
2022/09/07 07:00:52;;;;;;;15.93;8.07;;;563.50;2432.00;;;;;;5083129;28;20027;-86
2022/09/07 07:03:19;;;;;;;14.88;7.82;;;563.60;2432.00;;;;;;5084379;28;20024;-84
2022/09/07 07:05:52;;;;;;;11.88;7.55;;;563.60;2432.00;;;;;;5079309;28;20054;-81
2022/09/07 07:08:20;;;;;;;12.23;7.45;;;563.60;2432.00;;;;;;5079932;28;20491;-83
2022/09/07 07:10:46;;;;;;;11.02;7.40;;;563.60;2432.00;;;;;;5078867;28;20024;-83
2022/09/07 07:13:12;;;;;;;10.90;6.85;;;563.60;2432.00;;;;;;5090185;28;20024;-81
2022/09/07 07:15:38;;;;;;;13.35;7.45;;;563.60;2432.00;;;;;;5081241;28;20501;-82
2022/09/07 07:18:04;;;;;;;17.13;7.43;;;563.70;2432.00;;;;;;5084963;28;20121;-81
2022/09/07 07:20:29;;;;;;;14.65;7.47;;;563.70;2432.00;;;;;;5089332;28;20028;-82
2022/09/07 07:22:55;;;;;;;11.82;7.00;;;563.70;2432.00;;;;;;5072225;28;20032;-81
2022/09/07 07:25:21;;;;;;;10.07;7.22;;;563.70;2432.00;;;;;;5075930;28;20442;-82
2022/09/07 07:27:47;;;;;;;8.05;6.15;;;563.80;2432.00;;;;;;5078299;28;20066;-79
2022/09/07 07:30:15;;;;;;;11.35;6.47;;;563.80;2432.00;;;;;;5084546;28;20017;-83
2022/09/07 07:32:42;;;;;;;15.07;7.10;;;563.80;2432.00;;;;;;5074997;28;20044;-82
2022/09/07 07:35:08;;;;;;;10.70;7.47;;;563.90;2432.00;;;;;;5075148;28;20021;-82
2022/09/07 07:37:36;;;;;;;12.52;6.82;;;563.90;2432.00;;;;;;5085531;28;20586;-78
2022/09/07 07:40:07;;;;;;;12.82;6.35;;;564.00;2432.00;;;;;;5088804;28;20020;-81
2022/09/07 07:42:34;;;;;;;11.70;5.97;;;564.10;2432.00;;;;;;5081689;28;20031;-85
2022/09/07 07:45:00;;;;;;;17.60;7.72;;;564.10;2432.00;;;;;;5081721;28;20156;-82
2022/09/07 07:47:27;;;;;;;11.40;7.00;;;564.10;2432.00;;;;;;5087608;28;20086;-82
2022/09/07 07:49:53;;;;;;;10.52;6.25;;;564.10;2432.00;;;;;;5093699;28;20394;-84
2022/09/07 07:52:18;;;;;;;12.05;6.80;;;564.10;2432.00;;;;;;5093107;28;20024;-80
2022/09/07 07:54:45;;;;;;;8.50;6.25;;;588.80;2432.00;;;;;;5092563;28;20025;-81
2022/09/07 07:57:11;;;;;;;17.23;5.93;;;588.90;2432.00;;;;;;5078269;28;20025;-80
2022/09/07 07:59:37;;;;;;;13.60;6.38;;;589.00;2432.00;;;;;;5093178;28;20024;-82
2022/09/07 08:02:04;;;;;;;10.40;6.85;;;589.00;2432.00;;;;;;5093627;28;20020;-82
2022/09/07 08:04:34;;;;;;;8.55;5.82;;;589.00;2432.00;;;;;;5092957;28;20069;-84
2022/09/07 08:07:01;;;;;;;12.65;6.32;;;589.10;2432.00;;;;;;5093596;28;20494;-85
2022/09/07 08:09:27;;;;;;;10.43;6.53;;;588.90;2432.00;;;;;;5082774;28;20032;-82
2022/09/07 08:11:53;;;;;;;11.45;6.38;;;589.20;2432.00;;;;;;5093406;28;20040;-89
2022/09/07 08:14:20;;;;;;;14.05;6.65;;;589.10;2432.00;;;;;;5093494;28;20028;-81
2022/09/07 08:16:46;;;;;;;8.55;5.93;;;589.30;2432.00;;;;;;5092291;28;20048;-83
2022/09/07 08:19:12;;;;;;;13.88;5.88;;;589.30;2432.00;;;;;;5082297;28;20110;-84
2022/09/07 08:21:37;;;;;;;11.05;6.10;;;589.40;2432.00;;;;;;5082094;28;20031;-80
2022/09/07 08:24:03;;;;;;;11.55;6.32;;;589.40;2432.00;;;;;;5084303;28;20462;-79
2022/09/07 08:26:29;;;;;;;9.52;5.88;;;589.40;2432.00;;;;;;5079648;28;20552;-80
2022/09/07 08:28:55;;;;;;;21.75;7.28;;;589.40;2432.00;;;;;;5086052;28;20023;-81
2022/09/07 08:31:21;;;;;;;11.35;6.50;;;589.60;2432.00;;;;;;5080910;28;20016;-80
2022/09/07 08:33:47;;;;;;;20.75;6.85;;;589.70;2432.00;;;;;;5091348;28;20020;-86
2022/09/07 08:36:20;;;;;;;13.15;6.68;;;614.50;2432.00;;;;;;5092072;28;20043;-83
2022/09/07 08:38:46;;;;;;;13.65;7.40;;;614.70;2432.00;;;;;;5092108;28;20032;-84
2022/09/07 08:41:49;;;;;;;17.67;7.50;;;614.80;2432.00;;;;;;5091833;28;20016;-81
2022/09/07 08:44:33;;;;;;;7.63;5.30;;;615.10;2432.00;;;;;;5091731;28;20016;-84
2022/09/07 08:47:17;;;;;;;8.70;5.55;;;615.10;2432.00;;;;;;5091881;28;20537;-86
2022/09/07 08:49:52;;;;;;;8.68;5.47;;;615.10;2432.00;;;;;;5080389;28;20123;-81
2022/09/07 08:52:53;;;;;;;10.85;5.68;;;615.20;2432.00;;;;;;5085296;28;20047;-81
2022/09/07 08:55:37;;;;;;;16.40;5.75;;;640.00;2432.00;;;;;;5076984;28;20533;-83
2022/09/07 08:58:16;;;;;;;10.63;5.47;;;640.10;2432.00;;;;;;5073308;28;20021;-83
2022/09/07 09:00:42;;;;;;;11.82;5.55;;;640.10;2432.00;;;;;;5066770;28;20020;-85
2022/09/07 09:03:30;;;;;;;18.45;6.47;;;640.10;2432.00;;;;;;5092104;28;20027;-85
2022/09/07 09:06:29;;;;;;;19.23;6.72;;;640.40;2432.00;;;;;;5068936;28;20430;-84
2022/09/07 09:09:05;;;;;;;17.25;6.50;;;640.40;2432.00;;;;;;5011090;28;20022;-85
2022/09/07 09:12:05;;;;;;;10.10;6.45;;;640.40;2432.00;;;;;;5011163;28;20066;-85
2022/09/07 09:14:51;;;;;;;13.13;5.22;;;640.50;2432.00;;;;;;5011050;28;20052;-82
2022/09/07 09:17:54;;;;;;;8.07;6.13;;;640.70;2432.00;;;;;;5006954;28;20092;-82
2022/09/07 09:20:23;;;;;;;7.15;5.38;;;665.60;2432.00;;;;;;4996511;28;20034;-82
2022/09/07 09:22:54;;;;;;;21.05;8.82;;;665.70;2432.00;;;;;;4997267;28;20097;-74
2022/09/07 09:25:34;;;;;;;8.52;5.97;;;665.90;2304.00;;;;;;4985148;28;20030;-84
2022/09/07 09:28:00;;;;;;;14.25;6.82;;;665.80;2355.20;;;;;;4985755;28;20034;-79
2022/09/07 09:30:27;;;;;;;23.13;8.65;;;665.80;2304.00;;;;;;4982438;28;20085;-80
2022/09/07 09:33:16;;;;;;;15.68;6.90;;;665.90;2432.00;;;;;;4984898;28;20042;-81
2022/09/07 09:35:45;;;;;;;12.55;6.32;;;665.90;2406.40;;;;;;5001391;28;20025;-82
2022/09/07 09:38:30;;;;;;;21.20;8.13;;;665.70;2355.20;;;;;;4981893;28;20118;-85
2022/09/07 09:41:10;;;;;;;13.90;6.82;;;665.80;2355.20;;;;;;4989433;28;20229;-85
2022/09/07 09:43:56;;;;;;;10.65;6.20;;;665.70;2380.80;;;;;;4986965;28;20076;-89
2022/09/07 09:46:26;;;;;;;14.73;5.82;;;665.60;2304.00;;;;;;5055584;28;20047;-84
2022/09/07 09:49:05;;;;;;;10.30;6.68;;;665.60;2432.00;;;;;;5082920;28;20116;-84
2022/09/07 09:51:39;;;;;;;14.43;12.10;;;665.60;2380.80;;;;;;5078342;28;20569;-81
2022/09/07 09:54:29;;;;;;;13.88;6.00;;;665.70;2432.00;;;;;;5082163;28;20032;-80
2022/09/07 09:56:55;;;;;;;11.63;6.43;;;665.90;2329.60;;;;;;5086327;28;20035;-80
2022/09/07 09:59:22;;;;;;;13.05;5.35;;;666.20;2406.40;;;;;;5084350;28;20466;-81
2022/09/07 10:01:49;;;;;;;11.25;6.03;;;666.40;2355.20;;;;;;5084437;28;20065;-81
2022/09/07 10:04:20;;;;;;;16.17;6.38;;;666.50;2278.40;;;;;;5087453;28;20024;-81
2022/09/07 10:06:53;;;;;;;9.85;5.18;;;666.50;2176.00;;;;;;5087704;28;20099;-80
2022/09/07 10:09:35;;;;;;;9.65;5.35;;;666.50;2252.80;;;;;;5094606;28;20032;-80
2022/09/07 10:12:02;;;;;;;8.65;6.30;;;691.20;2329.60;;;;;;5085111;28;20040;-80
2022/09/07 10:14:30;;;;;;;10.85;5.90;;;691.60;2176.00;;;;;;5097007;28;20572;-81
2022/09/07 10:16:57;;;;;;;16.85;5.50;;;691.60;2201.60;;;;;;5090998;28;20439;-80
2022/09/07 10:19:35;;;;;;;15.63;5.85;;;691.40;2176.00;;;;;;5086588;28;20017;-78
2022/09/07 10:22:17;;;;;;;11.05;5.78;;;691.60;2201.60;;;;;;5074257;28;20032;-78
2022/09/07 10:24:43;;;;;;;11.30;5.63;;;692.10;2073.60;;;;;;5082513;28;20106;-79
2022/09/07 10:27:39;;;;;;;6.50;5.45;;;716.90;2073.60;;;;;;5081689;28;20118;-79
2022/09/07 10:30:15;;;;;;;7.50;6.15;;;717.30;1920.00;;;;;;5056072;28;20056;-87
2022/09/07 10:32:46;;;;;;;16.02;5.70;;;717.50;2124.80;;;;;;5050714;28;20439;-90
2022/09/07 10:35:12;;;;;;;10.23;5.57;;;717.70;1996.80;;;;;;5056780;28;20021;-86
2022/09/07 10:38:11;;;;;;;9.40;5.72;;;742.50;1920.00;;;;;;5049335;28;20595;-83
2022/09/07 10:40:57;;;;;;;8.63;6.05;;;742.60;1792.00;;;;;;5044101;28;20035;-83
2022/09/07 10:43:39;;;;;;;;;;;742.80;1817.60;;;;;;5051088;28;20036;-80
2022/09/07 10:46:20;;;;;;;10.70;6.53;;;742.90;1740.80;;;;;;5043025;28;20016;-80
2022/09/07 10:49:04;;;;;;;7.05;5.85;;;743.00;1715.20;;;;;;5060340;28;20526;-80
2022/09/07 10:51:29;;;;;;;9.10;6.53;;;743.00;1715.20;;;;;;5052576;28;20033;-79
2022/09/07 10:54:03;;;;;;;14.30;6.53;;;743.10;1792.00;;;;;;5035694;28;20048;-80
2022/09/07 10:56:38;;;;;;;10.32;6.20;;;768.10;1715.20;;;;;;5049128;28;20136;-80
2022/09/07 10:59:17;;;;;;;7.90;6.05;;;768.10;1638.40;;;;;;5048841;28;20148;-81
2022/09/07 11:02:10;;;;;;;12.27;6.90;;;768.30;1638.40;;;;;;5028080;28;20170;-83
2022/09/07 11:04:50;;;;;;;14.18;6.68;;;768.40;1561.60;;;;;;5036080;28;20025;-81
2022/09/07 11:07:22;;;;;;;9.88;6.68;;;768.60;1612.80;;;;;;5078694;28;20036;-80
2022/09/07 11:09:58;;;;;;;9.00;6.10;;;768.70;1561.60;;;;;;5079610;28;20024;-79
2022/09/07 11:12:31;;;;;;;13.35;6.53;;;768.90;1536.00;;;;;;5083190;28;20408;-80
2022/09/07 11:15:12;;;;;;;9.93;5.95;;;793.70;1561.60;;;;;;5079888;28;20082;-79
2022/09/07 11:17:51;;;;;;;11.50;6.43;;;794.00;1510.40;;;;;;5080474;28;20052;-79
2022/09/07 11:20:43;;;;;;;10.07;6.85;;;794.10;1510.40;;;;;;5094151;28;20020;-80
2022/09/07 11:23:18;;;;;;;9.75;6.18;;;794.00;1561.60;;;;;;5094480;28;20020;-79
2022/09/07 11:25:56;;;;;;;13.57;6.88;;;794.20;1459.20;;;;;;5092891;28;20046;-80
2022/09/07 11:28:26;;;;;;;11.82;5.93;;;794.00;1484.80;;;;;;5084119;28;20032;-79
2022/09/07 11:31:01;;;;;;;13.88;6.18;;;794.00;1459.20;;;;;;5078481;28;20020;-79
2022/09/07 11:33:30;;;;;;;13.25;6.45;;;794.20;1459.20;;;;;;5092492;28;20060;-80
2022/09/07 11:36:11;;;;;;;9.88;6.85;;;794.50;1510.40;;;;;;5092553;28;20024;-80
2022/09/07 11:38:36;;;;;;;9.00;6.97;;;794.20;1484.80;;;;;;5092458;28;20032;-80
2022/09/07 11:41:09;;;;;;;13.45;6.18;;;794.30;1433.60;;;;;;5092405;28;20101;-80
2022/09/07 11:43:42;;;;;;;8.38;6.57;;;794.30;1433.60;;;;;;5090744;28;20028;-79
2022/09/07 11:46:31;;;;;;;11.30;6.55;;;794.30;1433.60;;;;;;5082444;28;20032;-80
2022/09/07 11:48:57;;;;;;;12.15;6.43;;;794.50;1433.60;;;;;;5090542;28;20086;-79
2022/09/07 11:52:15;;;;;;;8.15;6.40;;;794.50;1408.00;;;;;;5091931;28;20522;-79
2022/09/07 11:54:58;;;;;;;8.63;5.93;;;794.50;1433.60;;;;;;4948128;28;20044;-79
2022/09/07 11:57:27;;;;;;;8.07;6.50;;;819.30;1433.60;;;;;;4921330;29;20032;-79
2022/09/07 12:00:09;;;;;;;11.27;6.53;;;819.30;1356.80;;;;;;4931053;29;20039;-79
2022/09/07 12:03:04;;;;;;;22.77;6.28;;;819.40;1433.60;;;;;;4934551;29;20070;-79
2022/09/07 12:05:32;;;;;;;11.10;6.18;;;819.40;1331.20;;;;;;4921116;29;20115;-80
2022/09/07 12:08:20;;;;;;;8.80;6.18;;;819.30;1382.40;;;;;;4922429;29;20079;-79
2022/09/07 12:11:04;;;;;;;14.25;6.90;;;819.30;1408.00;;;;;;4906413;29;20393;-80
2022/09/07 12:13:58;;;;;;;10.80;6.13;;;819.30;1408.00;;;;;;4915588;29;20052;-79
2022/09/07 12:16:38;;;;;;;8.48;6.97;;;819.40;1408.00;;;;;;4898568;29;20088;-79
2022/09/07 12:19:21;;;;;;;9.82;6.65;;;819.30;1331.20;;;;;;4901621;29;20577;-80
2022/09/07 12:21:52;;;;;;;7.85;6.10;;;819.40;1356.80;;;;;;4913749;29;20367;-79
2022/09/07 12:24:47;;;;;;;11.77;6.95;;;819.50;1331.20;;;;;;4913444;29;20059;-79
2022/09/07 12:27:20;;;;;;;11.05;7.55;;;819.50;1382.40;;;;;;4887413;29;20050;-79
2022/09/07 12:30:10;;;;;;;10.82;6.90;;;819.60;1408.00;;;;;;4919463;28;20036;-79
2022/09/07 12:32:47;;;;;;;10.77;5.93;;;819.40;1356.80;;;;;;5013369;28;20037;-79
2022/09/07 12:35:25;;;;;;;8.45;5.78;;;819.40;1356.80;;;;;;5017754;28;20065;-80
2022/09/07 12:38:01;;;;;;;13.43;5.93;;;819.50;1356.80;;;;;;5015481;28;20025;-78